sensor_id;sensor_type;location;lat;lon;timestamp;pressure;altitude;pressure_sealevel;temperature;humidity
65756;BME280;69208;47.502;18.940;2023-04-26T00:00:32;97448.84;;;8.02;82.15
65756;BME280;69208;47.502;18.940;2023-04-26T00:01:35;97449.41;;;7.98;82.31
65756;BME280;69208;47.502;18.940;2023-04-26T00:02:38;97448.63;;;7.98;82.66
65756;BME280;69208;47.502;18.940;2023-04-26T00:03:42;97458.97;;;8.03;82.26
65756;BME280;69208;47.502;18.940;2023-04-26T00:04:45;97463.69;;;8.01;82.16
65756;BME280;69208;47.502;18.940;2023-04-26T00:05:49;97457.13;;;8.04;82.11
65756;BME280;69208;47.502;18.940;2023-04-26T00:06:52;97458.47;;;8.01;82.21
65756;BME280;69208;47.502;18.940;2023-04-26T00:07:55;97455.87;;;8.01;82.45
65756;BME280;69208;47.502;18.940;2023-04-26T00:08:57;97455.09;;;8.01;82.09
65756;BME280;69208;47.502;18.940;2023-04-26T00:10:00;97459.53;;;8.14;81.60
65756;BME280;69208;47.502;18.940;2023-04-26T00:11:03;97460.72;;;8.08;81.92
65756;BME280;69208;47.502;18.940;2023-04-26T00:12:06;97467.00;;;7.93;82.57
65756;BME280;69208;47.502;18.940;2023-04-26T00:13:09;97469.91;;;7.91;82.31
65756;BME280;69208;47.502;18.940;2023-04-26T00:14:12;97467.38;;;7.86;82.42
65756;BME280;69208;47.502;18.940;2023-04-26T00:15:15;97470.56;;;7.97;81.98
65756;BME280;69208;47.502;18.940;2023-04-26T00:16:18;97469.72;;;7.88;82.30
65756;BME280;69208;47.502;18.940;2023-04-26T00:17:22;97468.28;;;7.82;82.83
65756;BME280;69208;47.502;18.940;2023-04-26T00:18:27;97464.91;;;7.81;82.50
65756;BME280;69208;47.502;18.940;2023-04-26T00:19:30;97465.75;;;7.77;82.87
65756;BME280;69208;47.502;18.940;2023-04-26T00:20:34;97472.31;;;7.74;82.61
65756;BME280;69208;47.502;18.940;2023-04-26T00:21:37;97474.44;;;7.86;82.37
65756;BME280;69208;47.502;18.940;2023-04-26T00:22:40;97473.75;;;7.80;82.51
65756;BME280;69208;47.502;18.940;2023-04-26T00:23:43;97475.09;;;7.78;82.66
65756;BME280;69208;47.502;18.940;2023-04-26T00:24:45;97480.31;;;7.78;82.62
65756;BME280;69208;47.502;18.940;2023-04-26T00:25:48;97481.22;;;7.73;83.14
65756;BME280;69208;47.502;18.940;2023-04-26T00:26:54;97481.28;;;7.68;83.35
65756;BME280;69208;47.502;18.940;2023-04-26T00:27:57;97476.97;;;7.63;83.65
65756;BME280;69208;47.502;18.940;2023-04-26T00:29:01;97486.81;;;7.66;83.46
65756;BME280;69208;47.502;18.940;2023-04-26T00:30:05;97474.16;;;7.73;83.14
65756;BME280;69208;47.502;18.940;2023-04-26T00:31:16;97488.03;;;7.69;83.41
65756;BME280;69208;47.502;18.940;2023-04-26T00:32:19;97492.09;;;7.61;84.24
65756;BME280;69208;47.502;18.940;2023-04-26T00:33:22;97496.72;;;7.50;84.96
65756;BME280;69208;47.502;18.940;2023-04-26T00:34:34;97490.84;;;7.59;84.49
65756;BME280;69208;47.502;18.940;2023-04-26T00:35:37;97497.69;;;7.68;84.05
65756;BME280;69208;47.502;18.940;2023-04-26T00:36:41;97495.50;;;7.75;83.40
65756;BME280;69208;47.502;18.940;2023-04-26T00:37:43;97503.31;;;7.62;84.17
65756;BME280;69208;47.502;18.940;2023-04-26T00:38:47;97498.75;;;7.53;84.70
65756;BME280;69208;47.502;18.940;2023-04-26T00:39:49;97495.38;;;7.53;84.69
65756;BME280;69208;47.502;18.940;2023-04-26T00:40:52;97496.72;;;7.50;84.84
65756;BME280;69208;47.502;18.940;2023-04-26T00:41:55;97500.37;;;7.49;84.74
65756;BME280;69208;47.502;18.940;2023-04-26T00:42:58;97494.22;;;7.45;85.06
65756;BME280;69208;47.502;18.940;2023-04-26T00:44:00;97495.84;;;7.41;84.97
65756;BME280;69208;47.502;18.940;2023-04-26T00:45:03;97506.19;;;7.46;84.77
65756;BME280;69208;47.502;18.940;2023-04-26T00:46:09;97506.94;;;7.47;84.80
65756;BME280;69208;47.502;18.940;2023-04-26T00:47:13;97509.84;;;7.45;84.72
65756;BME280;69208;47.502;18.940;2023-04-26T00:48:16;97508.28;;;7.44;84.78
65756;BME280;69208;47.502;18.940;2023-04-26T00:49:22;97510.00;;;7.35;85.04
65756;BME280;69208;47.502;18.940;2023-04-26T00:50:25;97508.81;;;7.27;85.12
65756;BME280;69208;47.502;18.940;2023-04-26T00:51:28;97505.91;;;7.15;85.85
65756;BME280;69208;47.502;18.940;2023-04-26T00:52:31;97511.81;;;7.21;85.50
65756;BME280;69208;47.502;18.940;2023-04-26T00:53:34;97509.97;;;7.21;85.19
65756;BME280;69208;47.502;18.940;2023-04-26T00:54:37;97508.59;;;7.10;85.75
65756;BME280;69208;47.502;18.940;2023-04-26T00:55:42;97498.00;;;7.20;84.90
65756;BME280;69208;47.502;18.940;2023-04-26T00:56:45;97512.69;;;7.16;84.81
65756;BME280;69208;47.502;18.940;2023-04-26T00:57:48;97509.06;;;7.12;85.00
65756;BME280;69208;47.502;18.940;2023-04-26T00:58:51;97502.16;;;7.21;84.73
65756;BME280;69208;47.502;18.940;2023-04-26T00:59:54;97505.44;;;7.13;84.50
65756;BME280;69208;47.502;18.940;2023-04-26T01:00:57;97508.09;;;7.08;84.81
65756;BME280;69208;47.502;18.940;2023-04-26T01:02:03;97506.91;;;7.00;85.62
65756;BME280;69208;47.502;18.940;2023-04-26T01:03:07;97512.69;;;6.97;85.46
65756;BME280;69208;47.502;18.940;2023-04-26T01:04:11;97507.47;;;6.97;85.49
65756;BME280;69208;47.502;18.940;2023-04-26T01:05:15;97517.25;;;7.05;85.18
65756;BME280;69208;47.502;18.940;2023-04-26T01:06:17;97509.75;;;7.04;84.86
65756;BME280;69208;47.502;18.940;2023-04-26T01:07:20;97502.56;;;6.96;85.35
65756;BME280;69208;47.502;18.940;2023-04-26T01:08:27;97506.78;;;6.92;85.49
65756;BME280;69208;47.502;18.940;2023-04-26T01:09:30;97507.09;;;6.90;85.74
65756;BME280;69208;47.502;18.940;2023-04-26T01:10:34;97506.22;;;6.95;85.37
65756;BME280;69208;47.502;18.940;2023-04-26T01:11:37;97516.16;;;6.93;85.35
65756;BME280;69208;47.502;18.940;2023-04-26T01:12:40;97513.00;;;6.96;85.70
65756;BME280;69208;47.502;18.940;2023-04-26T01:13:43;97517.06;;;7.02;85.49
65756;BME280;69208;47.502;18.940;2023-04-26T01:14:48;97513.88;;;7.05;85.01
65756;BME280;69208;47.502;18.940;2023-04-26T01:15:51;97518.25;;;6.91;85.73
65756;BME280;69208;47.502;18.940;2023-04-26T01:16:55;97513.06;;;6.91;85.51
65756;BME280;69208;47.502;18.940;2023-04-26T01:17:59;97522.25;;;6.83;85.65
65756;BME280;69208;47.502;18.940;2023-04-26T01:19:09;97517.28;;;6.87;85.74
65756;BME280;69208;47.502;18.940;2023-04-26T01:20:15;97515.59;;;6.77;85.85
65756;BME280;69208;47.502;18.940;2023-04-26T01:21:22;97518.13;;;6.82;85.84
65756;BME280;69208;47.502;18.940;2023-04-26T01:22:25;97519.66;;;6.83;85.85
65756;BME280;69208;47.502;18.940;2023-04-26T01:23:30;97520.53;;;6.78;86.29
65756;BME280;69208;47.502;18.940;2023-04-26T01:24:34;97524.87;;;6.83;85.71
65756;BME280;69208;47.502;18.940;2023-04-26T01:25:38;97530.16;;;6.78;86.01
65756;BME280;69208;47.502;18.940;2023-04-26T01:26:41;97526.31;;;6.75;86.16
65756;BME280;69208;47.502;18.940;2023-04-26T01:27:49;97532.28;;;6.76;86.12
65756;BME280;69208;47.502;18.940;2023-04-26T01:28:52;97531.34;;;6.86;85.76
65756;BME280;69208;47.502;18.940;2023-04-26T01:29:55;97540.09;;;6.76;85.97
65756;BME280;69208;47.502;18.940;2023-04-26T01:30:58;97529.25;;;6.69;86.47
65756;BME280;69208;47.502;18.940;2023-04-26T01:32:01;97526.16;;;6.67;86.55
65756;BME280;69208;47.502;18.940;2023-04-26T01:33:03;97523.00;;;6.70;86.42
65756;BME280;69208;47.502;18.940;2023-04-26T01:34:07;97532.91;;;6.68;86.47
65756;BME280;69208;47.502;18.940;2023-04-26T01:35:09;97529.66;;;6.76;86.23
65756;BME280;69208;47.502;18.940;2023-04-26T01:36:12;97548.66;;;6.76;85.95
65756;BME280;69208;47.502;18.940;2023-04-26T01:37:15;97533.34;;;6.75;85.98
65756;BME280;69208;47.502;18.940;2023-04-26T01:38:18;97540.72;;;6.68;86.15
65756;BME280;69208;47.502;18.940;2023-04-26T01:39:21;97537.75;;;6.55;86.75
65756;BME280;69208;47.502;18.940;2023-04-26T01:40:24;97535.34;;;6.59;86.59
65756;BME280;69208;47.502;18.940;2023-04-26T01:41:27;97535.03;;;6.66;85.61
65756;BME280;69208;47.502;18.940;2023-04-26T01:42:30;97536.12;;;6.59;85.73
65756;BME280;69208;47.502;18.940;2023-04-26T01:43:32;97532.28;;;6.57;86.04
65756;BME280;69208;47.502;18.940;2023-04-26T01:44:36;97539.28;;;6.56;86.31
65756;BME280;69208;47.502;18.940;2023-04-26T01:45:39;97535.66;;;6.57;85.78
65756;BME280;69208;47.502;18.940;2023-04-26T01:46:43;97540.84;;;6.57;85.84
65756;BME280;69208;47.502;18.940;2023-04-26T01:47:46;97536.47;;;6.53;86.17
65756;BME280;69208;47.502;18.940;2023-04-26T01:48:49;97537.97;;;6.59;85.82
65756;BME280;69208;47.502;18.940;2023-04-26T01:49:52;97547.37;;;6.55;86.01
65756;BME280;69208;47.502;18.940;2023-04-26T01:50:55;97535.72;;;6.52;85.99
65756;BME280;69208;47.502;18.940;2023-04-26T01:52:00;97539.84;;;6.53;85.87
65756;BME280;69208;47.502;18.940;2023-04-26T01:53:03;97546.47;;;6.46;86.22
65756;BME280;69208;47.502;18.940;2023-04-26T01:54:06;97546.25;;;6.42;86.54
65756;BME280;69208;47.502;18.940;2023-04-26T01:55:09;97544.63;;;6.46;86.13
65756;BME280;69208;47.502;18.940;2023-04-26T01:56:11;97542.03;;;6.46;86.05
65756;BME280;69208;47.502;18.940;2023-04-26T01:57:15;97539.37;;;6.51;85.66
65756;BME280;69208;47.502;18.940;2023-04-26T01:58:17;97540.56;;;6.59;85.34
65756;BME280;69208;47.502;18.940;2023-04-26T01:59:20;97548.59;;;6.63;85.09
65756;BME280;69208;47.502;18.940;2023-04-26T02:00:23;97547.03;;;6.61;85.12
65756;BME280;69208;47.502;18.940;2023-04-26T02:01:26;97546.00;;;6.63;84.96
65756;BME280;69208;47.502;18.940;2023-04-26T02:02:28;97550.97;;;6.59;85.06
65756;BME280;69208;47.502;18.940;2023-04-26T02:03:31;97550.56;;;6.52;85.55
65756;BME280;69208;47.502;18.940;2023-04-26T02:04:34;97546.87;;;6.53;85.71
65756;BME280;69208;47.502;18.940;2023-04-26T02:05:37;97552.38;;;6.51;85.52
65756;BME280;69208;47.502;18.940;2023-04-26T02:06:40;97545.91;;;6.49;85.51
65756;BME280;69208;47.502;18.940;2023-04-26T02:07:43;97550.91;;;6.45;85.51
65756;BME280;69208;47.502;18.940;2023-04-26T02:08:46;97555.88;;;6.42;85.66
65756;BME280;69208;47.502;18.940;2023-04-26T02:09:49;97548.66;;;6.57;85.09
65756;BME280;69208;47.502;18.940;2023-04-26T02:10:52;97546.63;;;6.54;84.99
65756;BME280;69208;47.502;18.940;2023-04-26T02:11:55;97553.66;;;6.54;84.83
65756;BME280;69208;47.502;18.940;2023-04-26T02:12:57;97549.84;;;6.46;85.40
65756;BME280;69208;47.502;18.940;2023-04-26T02:14:00;97542.38;;;6.40;85.60
65756;BME280;69208;47.502;18.940;2023-04-26T02:15:03;97545.97;;;6.44;85.41
65756;BME280;69208;47.502;18.940;2023-04-26T02:16:07;97551.81;;;6.54;84.54
65756;BME280;69208;47.502;18.940;2023-04-26T02:17:10;97547.44;;;6.50;84.90
65756;BME280;69208;47.502;18.940;2023-04-26T02:18:13;97538.94;;;6.44;85.00
65756;BME280;69208;47.502;18.940;2023-04-26T02:19:16;97546.03;;;6.38;85.28
65756;BME280;69208;47.502;18.940;2023-04-26T02:20:20;97548.56;;;6.44;85.15
65756;BME280;69208;47.502;18.940;2023-04-26T02:21:23;97554.53;;;6.44;84.89
65756;BME280;69208;47.502;18.940;2023-04-26T02:22:26;97552.22;;;6.43;84.52
65756;BME280;69208;47.502;18.940;2023-04-26T02:23:28;97544.47;;;6.37;84.73
65756;BME280;69208;47.502;18.940;2023-04-26T02:24:31;97540.34;;;6.36;84.84
65756;BME280;69208;47.502;18.940;2023-04-26T02:25:35;97547.59;;;6.40;84.74
65756;BME280;69208;47.502;18.940;2023-04-26T02:26:38;97545.41;;;6.47;84.00
65756;BME280;69208;47.502;18.940;2023-04-26T02:27:41;97549.84;;;6.46;84.15
65756;BME280;69208;47.502;18.940;2023-04-26T02:28:46;97550.81;;;6.50;83.69
65756;BME280;69208;47.502;18.940;2023-04-26T02:29:49;97549.56;;;6.48;83.77
65756;BME280;69208;47.502;18.940;2023-04-26T02:30:52;97552.44;;;6.46;83.74
65756;BME280;69208;47.502;18.940;2023-04-26T02:31:54;97554.28;;;6.46;83.48
65756;BME280;69208;47.502;18.940;2023-04-26T02:32:57;97552.94;;;6.48;83.52
65756;BME280;69208;47.502;18.940;2023-04-26T02:34:00;97559.41;;;6.51;82.89
65756;BME280;69208;47.502;18.940;2023-04-26T02:35:03;97564.19;;;6.44;83.65
65756;BME280;69208;47.502;18.940;2023-04-26T02:36:07;97558.00;;;6.40;83.63
65756;BME280;69208;47.502;18.940;2023-04-26T02:37:09;97556.59;;;6.47;83.37
65756;BME280;69208;47.502;18.940;2023-04-26T02:38:12;97559.75;;;6.44;83.07
65756;BME280;69208;47.502;18.940;2023-04-26T02:39:15;97558.56;;;6.36;83.17
65756;BME280;69208;47.502;18.940;2023-04-26T02:40:18;97560.69;;;6.29;83.53
65756;BME280;69208;47.502;18.940;2023-04-26T02:41:21;97560.31;;;6.41;83.09
65756;BME280;69208;47.502;18.940;2023-04-26T02:42:24;97561.91;;;6.37;82.95
65756;BME280;69208;47.502;18.940;2023-04-26T02:43:27;97568.09;;;6.41;82.78
65756;BME280;69208;47.502;18.940;2023-04-26T02:44:30;97569.69;;;6.42;82.52
65756;BME280;69208;47.502;18.940;2023-04-26T02:45:33;97568.66;;;6.38;82.67
65756;BME280;69208;47.502;18.940;2023-04-26T02:46:36;97556.38;;;6.44;82.40
65756;BME280;69208;47.502;18.940;2023-04-26T02:47:39;97559.03;;;6.38;82.38
65756;BME280;69208;47.502;18.940;2023-04-26T02:48:42;97565.50;;;6.41;82.41
65756;BME280;69208;47.502;18.940;2023-04-26T02:49:45;97560.69;;;6.29;82.91
65756;BME280;69208;47.502;18.940;2023-04-26T02:50:48;97561.56;;;6.25;83.35
65756;BME280;69208;47.502;18.940;2023-04-26T02:51:51;97567.00;;;6.23;83.71
65756;BME280;69208;47.502;18.940;2023-04-26T02:52:54;97566.47;;;6.26;83.54
65756;BME280;69208;47.502;18.940;2023-04-26T02:53:56;97564.38;;;6.28;83.40
65756;BME280;69208;47.502;18.940;2023-04-26T02:54:59;97563.66;;;6.23;83.73
65756;BME280;69208;47.502;18.940;2023-04-26T02:56:02;97569.13;;;6.21;83.86
65756;BME280;69208;47.502;18.940;2023-04-26T02:57:05;97560.78;;;6.24;83.72
65756;BME280;69208;47.502;18.940;2023-04-26T02:58:09;97565.19;;;6.24;83.68
65756;BME280;69208;47.502;18.940;2023-04-26T02:59:12;97563.66;;;6.23;83.99
65756;BME280;69208;47.502;18.940;2023-04-26T03:00:15;97574.72;;;6.09;84.66
65756;BME280;69208;47.502;18.940;2023-04-26T03:01:18;97562.97;;;6.12;84.53
65756;BME280;69208;47.502;18.940;2023-04-26T03:02:21;97563.34;;;6.00;85.17
65756;BME280;69208;47.502;18.940;2023-04-26T03:03:24;97564.81;;;6.11;84.46
65756;BME280;69208;47.502;18.940;2023-04-26T03:04:27;97560.84;;;6.19;83.75
65756;BME280;69208;47.502;18.940;2023-04-26T03:05:31;97566.03;;;6.19;83.75
65756;BME280;69208;47.502;18.940;2023-04-26T03:06:34;97566.09;;;6.14;83.86
65756;BME280;69208;47.502;18.940;2023-04-26T03:07:37;97582.53;;;6.09;84.27
65756;BME280;69208;47.502;18.940;2023-04-26T03:08:40;97581.50;;;6.05;84.68
65756;BME280;69208;47.502;18.940;2023-04-26T03:09:43;97576.13;;;5.97;84.94
65756;BME280;69208;47.502;18.940;2023-04-26T03:10:46;97573.28;;;5.98;84.86
65756;BME280;69208;47.502;18.940;2023-04-26T03:11:50;97577.72;;;5.92;85.07
65756;BME280;69208;47.502;18.940;2023-04-26T03:12:53;97586.06;;;5.95;84.95
65756;BME280;69208;47.502;18.940;2023-04-26T03:13:56;97592.03;;;5.95;84.98
65756;BME280;69208;47.502;18.940;2023-04-26T03:14:59;97589.69;;;5.93;84.29
65756;BME280;69208;47.502;18.940;2023-04-26T03:16:01;97591.53;;;5.93;84.37
65756;BME280;69208;47.502;18.940;2023-04-26T03:17:04;97597.22;;;5.95;84.56
65756;BME280;69208;47.502;18.940;2023-04-26T03:18:07;97599.06;;;5.95;84.67
65756;BME280;69208;47.502;18.940;2023-04-26T03:19:10;97599.28;;;5.98;84.21
65756;BME280;69208;47.502;18.940;2023-04-26T03:20:13;97601.81;;;6.03;84.25
65756;BME280;69208;47.502;18.940;2023-04-26T03:21:16;97599.31;;;5.93;84.41
65756;BME280;69208;47.502;18.940;2023-04-26T03:22:19;97605.06;;;5.85;84.83
65756;BME280;69208;47.502;18.940;2023-04-26T03:23:22;97599.87;;;5.85;85.06
65756;BME280;69208;47.502;18.940;2023-04-26T03:24:27;97611.56;;;5.87;85.05
65756;BME280;69208;47.502;18.940;2023-04-26T03:25:32;97605.31;;;5.88;85.01
65756;BME280;69208;47.502;18.940;2023-04-26T03:26:34;97609.94;;;5.97;84.91
65756;BME280;69208;47.502;18.940;2023-04-26T03:27:37;97607.87;;;5.93;84.99
65756;BME280;69208;47.502;18.940;2023-04-26T03:28:41;97611.00;;;5.90;85.39
65756;BME280;69208;47.502;18.940;2023-04-26T03:29:44;97613.94;;;5.84;85.46
65756;BME280;69208;47.502;18.940;2023-04-26T03:30:47;97611.88;;;5.81;85.96
65756;BME280;69208;47.502;18.940;2023-04-26T03:31:51;97613.72;;;5.80;85.79
65756;BME280;69208;47.502;18.940;2023-04-26T03:32:54;97615.16;;;5.91;85.52
65756;BME280;69208;47.502;18.940;2023-04-26T03:33:57;97618.25;;;5.99;85.07
65756;BME280;69208;47.502;18.940;2023-04-26T03:34:59;97618.28;;;5.93;85.02
65756;BME280;69208;47.502;18.940;2023-04-26T03:36:02;97612.41;;;5.83;85.17
65756;BME280;69208;47.502;18.940;2023-04-26T03:37:05;97625.38;;;5.83;84.90
65756;BME280;69208;47.502;18.940;2023-04-26T03:38:09;97623.00;;;5.86;84.88
65756;BME280;69208;47.502;18.940;2023-04-26T03:39:12;97617.81;;;5.86;84.22
65756;BME280;69208;47.502;18.940;2023-04-26T03:40:15;97621.22;;;5.82;84.36
65756;BME280;69208;47.502;18.940;2023-04-26T03:41:18;97622.06;;;5.77;84.82
65756;BME280;69208;47.502;18.940;2023-04-26T03:42:21;97626.16;;;5.83;84.24
65756;BME280;69208;47.502;18.940;2023-04-26T03:43:24;97617.28;;;5.89;84.03
65756;BME280;69208;47.502;18.940;2023-04-26T03:44:27;97616.72;;;5.92;84.24
65756;BME280;69208;47.502;18.940;2023-04-26T03:45:32;97617.97;;;6.00;83.79
65756;BME280;69208;47.502;18.940;2023-04-26T03:46:35;97615.34;;;6.00;83.30
65756;BME280;69208;47.502;18.940;2023-04-26T03:47:37;97624.56;;;5.87;83.80
65756;BME280;69208;47.502;18.940;2023-04-26T03:48:40;97614.53;;;5.76;84.12
65756;BME280;69208;47.502;18.940;2023-04-26T03:49:43;97616.06;;;5.77;84.43
65756;BME280;69208;47.502;18.940;2023-04-26T03:50:46;97618.66;;;5.77;84.29
65756;BME280;69208;47.502;18.940;2023-04-26T03:51:49;97623.16;;;5.71;84.73
65756;BME280;69208;47.502;18.940;2023-04-26T03:52:52;97621.88;;;5.68;84.72
65756;BME280;69208;47.502;18.940;2023-04-26T03:53:55;97627.75;;;5.79;83.90
65756;BME280;69208;47.502;18.940;2023-04-26T03:54:58;97629.50;;;5.89;83.20
65756;BME280;69208;47.502;18.940;2023-04-26T03:56:00;97631.59;;;5.87;83.51
65756;BME280;69208;47.502;18.940;2023-04-26T03:57:03;97635.50;;;5.84;83.39
65756;BME280;69208;47.502;18.940;2023-04-26T03:58:06;97623.84;;;5.77;83.27
65756;BME280;69208;47.502;18.940;2023-04-26T03:59:09;97628.47;;;5.85;83.01
65756;BME280;69208;47.502;18.940;2023-04-26T04:00:12;97629.31;;;5.80;84.18
65756;BME280;69208;47.502;18.940;2023-04-26T04:01:16;97633.00;;;5.74;84.32
65756;BME280;69208;47.502;18.940;2023-04-26T04:02:19;97621.44;;;5.85;83.26
65756;BME280;69208;47.502;18.940;2023-04-26T04:03:22;97628.47;;;5.85;83.25
65756;BME280;69208;47.502;18.940;2023-04-26T04:04:25;97628.28;;;5.76;83.55
65756;BME280;69208;47.502;18.940;2023-04-26T04:05:29;97626.22;;;5.73;84.10
65756;BME280;69208;47.502;18.940;2023-04-26T04:06:31;97628.94;;;5.63;84.17
65756;BME280;69208;47.502;18.940;2023-04-26T04:07:34;97627.31;;;5.67;83.51
65756;BME280;69208;47.502;18.940;2023-04-26T04:08:37;97629.47;;;5.60;83.77
65756;BME280;69208;47.502;18.940;2023-04-26T04:09:40;97631.22;;;5.69;83.56
65756;BME280;69208;47.502;18.940;2023-04-26T04:10:43;97629.38;;;5.70;83.40
65756;BME280;69208;47.502;18.940;2023-04-26T04:11:46;97632.19;;;5.74;83.48
65756;BME280;69208;47.502;18.940;2023-04-26T04:12:49;97631.16;;;5.75;83.46
65756;BME280;69208;47.502;18.940;2023-04-26T04:13:52;97629.84;;;5.77;83.49
65756;BME280;69208;47.502;18.940;2023-04-26T04:14:55;97621.31;;;5.72;83.51
65756;BME280;69208;47.502;18.940;2023-04-26T04:15:58;97629.97;;;5.62;84.25
65756;BME280;69208;47.502;18.940;2023-04-26T04:17:01;97631.00;;;5.61;84.63
65756;BME280;69208;47.502;18.940;2023-04-26T04:18:03;97644.97;;;5.70;84.30
65756;BME280;69208;47.502;18.940;2023-04-26T04:19:06;97645.19;;;5.74;83.40
65756;BME280;69208;47.502;18.940;2023-04-26T04:20:10;97646.00;;;5.74;83.29
65756;BME280;69208;47.502;18.940;2023-04-26T04:21:14;97645.81;;;5.65;82.98
65756;BME280;69208;47.502;18.940;2023-04-26T04:22:17;97656.22;;;5.60;83.62
65756;BME280;69208;47.502;18.940;2023-04-26T04:23:19;97657.53;;;5.58;83.59
65756;BME280;69208;47.502;18.940;2023-04-26T04:24:22;97647.91;;;5.58;83.72
65756;BME280;69208;47.502;18.940;2023-04-26T04:25:25;97653.31;;;5.67;83.31
65756;BME280;69208;47.502;18.940;2023-04-26T04:26:28;97659.22;;;5.78;82.40
65756;BME280;69208;47.502;18.940;2023-04-26T04:27:32;97661.66;;;5.64;82.77
65756;BME280;69208;47.502;18.940;2023-04-26T04:28:34;97658.78;;;5.65;82.78
65756;BME280;69208;47.502;18.940;2023-04-26T04:29:37;97667.59;;;5.69;82.47
65756;BME280;69208;47.502;18.940;2023-04-26T04:30:40;97667.03;;;5.73;82.40
65756;BME280;69208;47.502;18.940;2023-04-26T04:31:45;97661.84;;;5.73;82.23
65756;BME280;69208;47.502;18.940;2023-04-26T04:32:48;97667.69;;;5.59;82.70
65756;BME280;69208;47.502;18.940;2023-04-26T04:33:51;97672.03;;;5.64;82.63
65756;BME280;69208;47.502;18.940;2023-04-26T04:34:55;97667.38;;;5.66;82.68
65756;BME280;69208;47.502;18.940;2023-04-26T04:35:58;97671.50;;;5.67;82.57
65756;BME280;69208;47.502;18.940;2023-04-26T04:37:02;97664.00;;;5.65;82.54
65756;BME280;69208;47.502;18.940;2023-04-26T04:38:05;97666.78;;;5.74;82.36
65756;BME280;69208;47.502;18.940;2023-04-26T04:39:08;97673.22;;;5.82;81.93
65756;BME280;69208;47.502;18.940;2023-04-26T04:40:15;97671.13;;;5.84;82.14
65756;BME280;69208;47.502;18.940;2023-04-26T04:41:18;97675.59;;;5.78;82.70
65756;BME280;69208;47.502;18.940;2023-04-26T04:42:25;97678.22;;;5.73;83.30
65756;BME280;69208;47.502;18.940;2023-04-26T04:43:30;97681.31;;;5.75;83.49
65756;BME280;69208;47.502;18.940;2023-04-26T04:44:34;97679.25;;;5.77;83.79
65756;BME280;69208;47.502;18.940;2023-04-26T04:45:36;97683.63;;;5.77;84.28
65756;BME280;69208;47.502;18.940;2023-04-26T04:46:41;97683.91;;;5.75;84.46
65756;BME280;69208;47.502;18.940;2023-04-26T04:47:44;97687.84;;;5.73;84.54
65756;BME280;69208;47.502;18.940;2023-04-26T04:48:47;97686.22;;;5.77;84.67
65756;BME280;69208;47.502;18.940;2023-04-26T04:49:50;97695.44;;;5.64;85.58
65756;BME280;69208;47.502;18.940;2023-04-26T04:50:53;97689.50;;;5.58;85.93
65756;BME280;69208;47.502;18.940;2023-04-26T04:51:55;97699.06;;;5.68;85.56
65756;BME280;69208;47.502;18.940;2023-04-26T04:52:59;97693.31;;;5.71;85.37
65756;BME280;69208;47.502;18.940;2023-04-26T04:54:11;97693.53;;;5.80;85.17
65756;BME280;69208;47.502;18.940;2023-04-26T04:55:14;97701.84;;;5.77;85.46
65756;BME280;69208;47.502;18.940;2023-04-26T04:56:18;97703.44;;;5.73;85.97
65756;BME280;69208;47.502;18.940;2023-04-26T04:57:21;97697.88;;;5.84;85.37
65756;BME280;69208;47.502;18.940;2023-04-26T04:58:23;97703.31;;;5.88;85.06
65756;BME280;69208;47.502;18.940;2023-04-26T04:59:26;97705.69;;;5.84;84.95
65756;BME280;69208;47.502;18.940;2023-04-26T05:00:30;97705.66;;;5.89;84.88
65756;BME280;69208;47.502;18.940;2023-04-26T05:01:33;97709.78;;;5.96;84.66
65756;BME280;69208;47.502;18.940;2023-04-26T05:02:36;97713.94;;;5.91;84.80
65756;BME280;69208;47.502;18.940;2023-04-26T05:03:39;97711.34;;;5.91;84.09
65756;BME280;69208;47.502;18.940;2023-04-26T05:04:43;97708.50;;;5.93;83.83
65756;BME280;69208;47.502;18.940;2023-04-26T05:05:46;97714.00;;;5.86;83.82
65756;BME280;69208;47.502;18.940;2023-04-26T05:06:49;97714.22;;;5.95;83.29
65756;BME280;69208;47.502;18.940;2023-04-26T05:07:52;97709.53;;;5.92;82.75
65756;BME280;69208;47.502;18.940;2023-04-26T05:08:55;97709.56;;;5.87;82.51
65756;BME280;69208;47.502;18.940;2023-04-26T05:09:58;97714.03;;;5.81;82.59
65756;BME280;69208;47.502;18.940;2023-04-26T05:11:01;97718.69;;;5.84;81.59
65756;BME280;69208;47.502;18.940;2023-04-26T05:12:04;97716.31;;;5.88;80.83
65756;BME280;69208;47.502;18.940;2023-04-26T05:13:07;97722.25;;;5.99;80.45
65756;BME280;69208;47.502;18.940;2023-04-26T05:14:10;97716.28;;;5.98;81.27
65756;BME280;69208;47.502;18.940;2023-04-26T05:15:13;97720.06;;;6.11;80.65
65756;BME280;69208;47.502;18.940;2023-04-26T05:16:16;97720.84;;;6.11;79.06
65756;BME280;69208;47.502;18.940;2023-04-26T05:17:19;97721.16;;;6.05;79.86
65756;BME280;69208;47.502;18.940;2023-04-26T05:18:21;97722.84;;;6.20;78.55
65756;BME280;69208;47.502;18.940;2023-04-26T05:19:25;97723.91;;;6.19;78.60
65756;BME280;69208;47.502;18.940;2023-04-26T05:20:27;97726.16;;;6.30;78.53
65756;BME280;69208;47.502;18.940;2023-04-26T05:21:30;97719.38;;;6.29;78.16
65756;BME280;69208;47.502;18.940;2023-04-26T05:22:34;97721.94;;;6.34;77.15
65756;BME280;69208;47.502;18.940;2023-04-26T05:23:38;97729.16;;;6.43;77.54
65756;BME280;69208;47.502;18.940;2023-04-26T05:24:40;97730.66;;;6.49;76.97
65756;BME280;69208;47.502;18.940;2023-04-26T05:25:43;97730.69;;;6.44;76.31
65756;BME280;69208;47.502;18.940;2023-04-26T05:26:46;97734.91;;;6.40;74.92
65756;BME280;69208;47.502;18.940;2023-04-26T05:27:49;97732.31;;;6.40;74.34
65756;BME280;69208;47.502;18.940;2023-04-26T05:28:53;97731.03;;;6.37;74.50
65756;BME280;69208;47.502;18.940;2023-04-26T05:29:56;97732.75;;;6.47;74.76
65756;BME280;69208;47.502;18.940;2023-04-26T05:30:59;97729.13;;;6.48;74.54
65756;BME280;69208;47.502;18.940;2023-04-26T05:32:06;97737.34;;;6.55;74.91
65756;BME280;69208;47.502;18.940;2023-04-26T05:33:08;97738.09;;;6.60;74.76
65756;BME280;69208;47.502;18.940;2023-04-26T05:34:11;97729.50;;;6.60;73.90
65756;BME280;69208;47.502;18.940;2023-04-26T05:35:14;97734.75;;;6.55;71.61